createdAt,value
2019-04-05T00:00:16.679Z,98983.53
2019-04-05T00:02:48.885Z,98990.53
2019-04-05T00:05:20.849Z,98990.53
2019-04-05T00:07:52.889Z,98990.86
2019-04-05T00:10:25.473Z,98983.23
2019-04-05T00:12:58.450Z,98986.88
2019-04-05T00:15:31.165Z,98989.41
2019-04-05T00:18:04.339Z,98995.04
2019-04-05T00:20:36.939Z,98980.19
2019-04-05T00:23:09.892Z,98982.91
2019-04-05T00:25:42.071Z,98984.06
2019-04-05T00:28:14.338Z,98971.00
2019-04-05T00:30:46.882Z,98973.39
2019-04-05T00:33:18.858Z,98980.09
2019-04-05T00:35:50.904Z,98981.88
2019-04-05T00:38:22.878Z,98972.86
2019-04-05T00:40:54.831Z,98985.86
2019-04-05T00:43:26.869Z,98993.78
2019-04-05T00:45:59.335Z,99005.28
2019-04-05T00:48:32.139Z,99016.69
2019-04-05T00:51:04.865Z,99027.86
2019-04-05T00:53:37.799Z,99031.11
2019-04-05T00:56:08.748Z,99034.56
2019-04-05T00:58:41.339Z,99043.64
2019-04-05T01:01:14.336Z,99057.13
2019-04-05T01:03:46.911Z,99056.30
2019-04-05T01:06:19.367Z,99053.48
2019-04-05T01:08:52.281Z,99052.12
2019-04-05T01:11:24.832Z,99050.14
2019-04-05T01:13:57.520Z,99055.77
2019-04-05T01:16:29.841Z,99057.47
2019-04-05T01:19:04.023Z,99057.23
2019-04-05T01:21:41.655Z,99056.73
2019-04-05T01:24:13.905Z,99038.23
2019-04-05T01:26:46.876Z,99038.23
2019-04-05T01:29:19.182Z,99059.55
2019-04-05T01:31:51.861Z,99058.39
2019-04-05T01:34:24.402Z,99065.09
2019-04-05T01:36:56.831Z,99062.48
2019-04-05T01:39:28.916Z,99066.98
2019-04-05T01:42:00.888Z,99071.36
2019-04-05T01:44:32.897Z,99062.38
2019-04-05T01:47:05.100Z,99071.69
2019-04-05T01:49:37.343Z,99078.98
2019-04-05T01:52:09.895Z,99088.00
2019-04-05T01:54:42.052Z,99078.38
2019-04-05T01:57:14.377Z,99083.48
2019-04-05T01:59:46.946Z,99084.31
2019-04-05T02:02:19.335Z,99081.50
2019-04-05T02:04:52.964Z,99075.66
2019-04-05T02:07:25.881Z,99073.55
2019-04-05T02:09:58.400Z,99080.77
2019-04-05T02:12:30.805Z,99081.83
2019-04-05T02:15:03.010Z,99077.31
2019-04-05T02:17:36.105Z,99084.65
2019-04-05T02:20:09.814Z,99085.18
2019-04-05T02:22:41.858Z,99079.53
2019-04-05T02:25:14.078Z,99081.63
2019-04-05T02:27:46.354Z,99088.82
2019-04-05T02:30:18.906Z,99083.28
2019-04-05T02:32:51.358Z,99088.39
2019-04-05T02:35:23.853Z,99089.26
2019-04-05T02:37:57.594Z,99092.91
2019-04-05T02:40:29.836Z,99099.16
2019-04-05T02:43:03.100Z,99099.16
2019-04-05T02:45:35.701Z,99110.91
2019-04-05T02:48:08.710Z,99114.75
2019-04-05T02:50:42.497Z,99105.36
2019-04-05T02:53:14.885Z,99108.08
2019-04-05T02:55:47.327Z,99114.22
2019-04-05T02:58:19.488Z,99110.78
2019-04-05T03:00:52.449Z,99101.16
2019-04-05T03:03:24.891Z,99103.05
2019-04-05T03:05:57.341Z,99104.60
2019-04-05T03:08:30.021Z,99101.16
2019-04-05T03:11:16.073Z,99103.88
2019-04-05T03:13:55.426Z,99106.92
2019-04-05T03:16:41.060Z,99112.88
2019-04-05T03:19:25.336Z,99105.66
2019-04-05T03:22:07.403Z,99100.03
2019-04-05T03:24:40.886Z,99100.03
2019-04-05T03:27:34.925Z,99105.86
2019-04-05T03:30:08.107Z,99098.86
2019-04-05T03:32:40.883Z,99098.14
2019-04-05T03:35:13.877Z,99090.80
2019-04-05T03:37:46.326Z,99095.73
2019-04-05T03:40:18.921Z,99097.70
2019-04-05T03:42:51.368Z,99111.52
2019-04-05T03:45:23.820Z,99115.90
2019-04-05T03:47:55.865Z,99132.55
2019-04-05T03:50:28.331Z,99140.27
2019-04-05T03:53:00.925Z,99146.54
2019-04-05T03:55:33.378Z,99145.08
2019-04-05T03:58:05.868Z,99149.34
2019-04-05T04:00:38.324Z,99148.52
2019-04-05T04:03:10.892Z,99158.36
2019-04-05T04:05:43.329Z,99170.06
2019-04-05T04:08:17.118Z,99170.80
2019-04-05T04:10:49.909Z,99174.15
2019-04-05T04:13:21.997Z,99178.33
2019-04-05T04:15:54.887Z,99179.69
2019-04-05T04:18:27.543Z,99179.05
2019-04-05T04:21:06.376Z,99186.48
2019-04-05T04:23:39.313Z,99194.53
2019-04-05T04:26:11.850Z,99195.67
2019-04-05T04:28:44.695Z,99201.00
2019-04-05T04:31:16.139Z,99210.84
2019-04-05T04:33:49.427Z,99221.19
2019-04-05T04:36:21.941Z,99221.91
2019-04-05T04:38:54.328Z,99221.80
2019-04-05T04:41:27.338Z,99218.36
2019-04-05T04:43:59.654Z,99221.72
2019-04-05T04:46:32.021Z,99228.60
2019-04-05T04:49:13.492Z,99228.60
2019-04-05T04:51:49.303Z,99232.14
2019-04-05T04:54:22.333Z,99230.06
2019-04-05T04:56:54.875Z,99241.16
2019-04-05T04:59:26.880Z,99236.86
2019-04-05T05:01:59.376Z,99232.79
2019-04-05T05:04:32.328Z,99232.27
2019-04-05T05:07:04.933Z,99237.06
2019-04-05T05:09:37.358Z,99232.03
2019-04-05T05:12:09.855Z,99240.11
2019-04-05T05:14:41.865Z,99233.39
2019-04-05T05:17:13.916Z,99238.75
2019-04-05T05:19:45.943Z,99247.29
2019-04-05T05:22:18.350Z,99238.00
2019-04-05T05:24:50.833Z,99227.47
2019-04-05T05:27:23.067Z,99241.13
2019-04-05T05:29:55.833Z,99247.21
2019-04-05T05:32:27.857Z,99248.45
2019-04-05T05:35:02.167Z,99251.59
2019-04-05T05:37:34.421Z,99241.66
2019-04-05T05:40:07.276Z,99256.61
2019-04-05T05:42:40.349Z,99249.09
2019-04-05T05:45:13.795Z,99252.84
2019-04-05T05:47:52.113Z,99255.06
2019-04-05T05:50:20.620Z,99256.30
2019-04-05T05:52:52.852Z,99251.28
2019-04-05T05:55:25.319Z,99251.28
2019-04-05T05:57:58.790Z,99247.93
2019-04-05T06:00:32.087Z,99247.09
2019-04-05T06:03:06.187Z,99243.66
2019-04-05T06:05:39.062Z,99238.20
2019-04-05T06:08:11.398Z,99238.20
2019-04-05T06:10:44.317Z,99261.63
2019-04-05T06:13:16.547Z,99268.53
2019-04-05T06:15:49.331Z,99265.59
2019-04-05T06:18:21.783Z,99266.95
2019-04-05T06:20:53.983Z,99266.95
2019-04-05T06:23:33.615Z,99270.39
2019-04-05T06:26:00.835Z,99272.31
2019-04-05T06:28:32.935Z,99273.56
2019-04-05T06:31:05.340Z,99273.64
2019-04-05T06:33:37.975Z,99277.75
2019-04-05T06:36:10.343Z,99281.08
2019-04-05T06:38:42.918Z,99282.63
2019-04-05T06:41:15.040Z,99289.42
2019-04-05T06:43:47.410Z,99285.68
2019-04-05T06:46:19.845Z,99285.03
2019-04-05T06:48:51.893Z,99277.94
2019-04-05T06:51:23.978Z,99276.58
2019-04-05T06:53:57.070Z,99272.16
2019-04-05T06:56:29.455Z,99273.52
2019-04-05T06:59:52.281Z,99268.09
2019-04-05T07:02:24.788Z,99284.84
2019-04-05T07:04:56.905Z,99282.51
2019-04-05T07:07:28.873Z,99286.59
2019-04-05T07:10:01.040Z,99283.48
2019-04-05T07:12:33.320Z,99292.89
2019-04-05T07:15:06.358Z,99297.57
2019-04-05T07:17:38.892Z,99301.34
2019-04-05T07:20:11.336Z,99300.17
2019-04-05T07:22:43.881Z,99301.16
2019-04-05T07:25:16.436Z,99302.40
2019-04-05T07:27:48.817Z,99309.80
2019-04-05T07:30:21.378Z,99314.22
2019-04-05T07:32:54.049Z,99320.90
2019-04-05T07:35:33.244Z,99323.50
2019-04-05T07:38:00.489Z,99326.82
2019-04-05T07:40:32.848Z,99329.65
2019-04-05T07:43:04.925Z,99330.89
2019-04-05T07:45:37.855Z,99337.87
2019-04-05T07:48:10.046Z,99335.39
2019-04-05T07:50:42.436Z,99334.78
2019-04-05T07:53:14.846Z,99337.16
2019-04-05T07:55:46.929Z,99341.77
2019-04-05T07:58:19.651Z,99345.01
2019-04-05T08:00:59.358Z,99345.72
2019-04-05T08:03:32.325Z,99345.72
2019-04-05T08:06:05.325Z,99363.50
2019-04-05T08:09:06.389Z,99359.63
2019-04-05T08:11:38.914Z,99368.18
2019-04-05T08:14:11.876Z,99366.22
2019-04-05T08:16:43.893Z,99372.49
2019-04-05T08:19:16.864Z,99374.49
2019-04-05T08:21:49.369Z,99374.49
2019-04-05T08:24:21.887Z,99371.77
2019-04-05T08:26:54.395Z,99369.72
2019-04-05T08:29:27.019Z,99365.75
2019-04-05T08:32:13.628Z,99363.03
2019-04-05T08:34:35.348Z,99355.83
2019-04-05T08:37:08.094Z,99360.24
2019-04-05T08:39:40.308Z,99363.19
2019-04-05T08:42:13.287Z,99371.66
2019-04-05T08:44:46.321Z,99371.46
2019-04-05T08:47:18.838Z,99368.75
2019-04-05T08:49:51.350Z,99366.25
2019-04-05T08:52:26.879Z,99369.31
2019-04-05T08:54:58.092Z,99372.45
2019-04-05T08:57:30.892Z,99369.92
2019-04-05T09:00:03.328Z,99365.66
2019-04-05T09:02:35.904Z,99364.18
2019-04-05T09:05:08.839Z,99362.10
2019-04-05T09:07:40.836Z,99368.41
2019-04-05T09:10:13.354Z,99366.07
2019-04-05T09:12:46.137Z,99370.45
2019-04-05T09:15:18.327Z,99370.78
2019-04-05T09:17:50.949Z,99375.17
2019-04-05T09:20:23.510Z,99372.67
2019-04-05T09:22:56.481Z,99366.59
2019-04-05T09:25:30.508Z,99375.92
2019-04-05T09:28:03.507Z,99376.23
2019-04-05T09:30:35.999Z,99373.84
2019-04-05T09:33:09.362Z,99379.62
2019-04-05T09:35:42.338Z,99381.28
2019-04-05T09:38:14.883Z,99386.08
2019-04-05T09:40:49.358Z,99388.16
2019-04-05T09:43:21.896Z,99385.75
2019-04-05T09:45:54.425Z,99385.75
2019-04-05T09:48:26.885Z,99391.14
2019-04-05T09:50:59.347Z,99385.70
2019-04-05T09:53:31.942Z,99384.23
2019-04-05T09:56:04.834Z,99378.06
2019-04-05T09:58:40.852Z,99379.02
2019-04-05T10:01:14.996Z,99386.08
2019-04-05T10:03:47.396Z,99382.64
2019-04-05T10:06:19.863Z,99391.78
2019-04-05T10:08:52.694Z,99391.03
2019-04-05T10:11:28.420Z,99387.92
2019-04-05T10:13:59.865Z,99387.92
2019-04-05T10:16:32.348Z,99383.77
2019-04-05T10:19:04.903Z,99386.06
2019-04-05T10:21:39.347Z,99386.90
2019-04-05T10:24:11.901Z,99392.03
2019-04-05T10:26:44.497Z,99397.14
2019-04-05T10:29:17.070Z,99399.67
2019-04-05T10:31:49.363Z,99401.56
2019-04-05T10:34:21.904Z,99401.45
2019-04-05T10:36:54.057Z,99393.73
2019-04-05T10:39:26.397Z,99394.98
2019-04-05T10:42:03.786Z,99390.90
2019-04-05T10:44:34.005Z,99397.78
2019-04-05T10:47:06.364Z,99399.45
2019-04-05T10:49:42.076Z,99404.28
2019-04-05T10:52:13.939Z,99408.36
2019-04-05T10:54:45.862Z,99416.94
2019-04-05T10:57:18.131Z,99414.33
2019-04-05T10:59:50.921Z,99410.33
2019-04-05T11:02:23.025Z,99422.69
2019-04-05T11:04:56.821Z,99419.05
2019-04-05T11:07:29.324Z,99424.61
2019-04-05T11:10:01.909Z,99418.41
2019-04-05T11:12:34.580Z,99417.47
2019-04-05T11:15:07.833Z,99417.25
2019-04-05T11:17:42.272Z,99417.25
2019-04-05T11:20:21.053Z,99422.60
2019-04-05T11:22:50.918Z,99422.60
2019-04-05T11:25:23.891Z,99428.69
2019-04-05T11:27:56.718Z,99423.66
2019-04-05T11:30:45.752Z,99414.47
2019-04-05T11:33:19.513Z,99420.02
2019-04-05T11:35:49.956Z,99415.41
2019-04-05T11:38:24.233Z,99419.71
2019-04-05T11:40:56.910Z,99414.87
2019-04-05T11:43:32.963Z,99421.58
2019-04-05T11:46:06.195Z,99422.75
2019-04-05T11:48:41.175Z,99428.41
2019-04-05T11:51:13.324Z,99407.44
2019-04-05T11:53:55.134Z,99407.44
2019-04-05T11:56:27.838Z,99417.72
2019-04-05T11:59:01.127Z,99412.47
2019-04-05T12:01:45.822Z,99421.16
2019-04-05T12:04:17.862Z,99421.99
2019-04-05T12:06:51.772Z,99421.47
2019-04-05T12:09:23.852Z,99423.35
2019-04-05T12:11:55.907Z,99422.11
2019-04-05T12:14:40.881Z,99424.82
2019-04-05T12:17:12.872Z,99423.80
2019-04-05T12:19:44.889Z,99423.46
2019-04-05T12:22:19.821Z,99422.33
2019-04-05T12:24:51.463Z,99416.25
2019-04-05T12:27:23.871Z,99419.71
2019-04-05T12:29:55.898Z,99422.52
2019-04-05T12:32:34.065Z,99419.71
2019-04-05T12:35:04.519Z,99420.23
2019-04-05T12:37:49.630Z,99419.17
2019-04-05T12:40:14.723Z,99418.57
2019-04-05T12:42:45.745Z,99407.98
2019-04-05T12:45:20.815Z,99405.27
2019-04-05T12:47:52.909Z,99400.66
2019-04-05T12:50:24.940Z,99394.69
2019-04-05T12:52:57.419Z,99389.44
2019-04-05T12:55:29.897Z,99390.50
2019-04-05T12:58:02.308Z,99385.27
2019-04-05T13:00:34.928Z,99385.05
2019-04-05T13:03:06.990Z,99388.72
2019-04-05T13:05:39.321Z,99390.08
2019-04-05T13:08:11.807Z,99384.94
2019-04-05T13:10:43.898Z,99387.05
2019-04-05T13:13:20.811Z,99381.08
2019-04-05T13:15:55.778Z,99390.38
2019-04-05T13:18:30.630Z,99390.39
2019-04-05T13:21:14.008Z,99391.03
2019-04-05T13:23:36.598Z,99380.44
2019-04-05T13:26:12.538Z,99382.22
2019-04-05T13:28:48.686Z,99382.22
2019-04-05T13:31:21.879Z,99379.08
2019-04-05T13:33:55.188Z,99374.25
2019-04-05T13:36:29.764Z,99377.53
2019-04-05T13:39:01.876Z,99377.53
2019-04-05T13:41:34.046Z,99380.67
2019-04-05T13:44:06.902Z,99383.39
2019-04-05T13:46:39.293Z,99368.81
2019-04-05T13:49:13.069Z,99367.87
2019-04-05T13:51:47.492Z,99364.62
2019-04-05T13:54:19.855Z,99375.51
2019-04-05T13:56:55.051Z,99379.92
2019-04-05T13:59:28.479Z,99373.76
2019-04-05T14:02:06.343Z,99370.50
2019-04-05T14:04:34.894Z,99364.95
2019-04-05T14:07:07.863Z,99364.95
2019-04-05T14:09:40.709Z,99361.84
2019-04-05T14:12:13.965Z,99357.41
2019-04-05T14:14:48.766Z,99358.50
2019-04-05T14:17:20.850Z,99358.25
2019-04-05T14:19:53.019Z,99355.09
2019-04-05T14:22:25.333Z,99355.16
2019-04-05T14:24:58.018Z,99358.17
2019-04-05T14:27:34.814Z,99348.00
2019-04-05T14:30:05.572Z,99354.28
2019-04-05T14:32:38.318Z,99348.44
2019-04-05T14:35:10.944Z,99348.44
2019-04-05T14:37:43.324Z,99354.72
2019-04-05T14:40:16.332Z,99355.45
2019-04-05T14:42:48.865Z,99353.80
2019-04-05T14:45:21.319Z,99353.16
2019-04-05T14:47:57.682Z,99344.55
2019-04-05T14:50:28.942Z,99352.13
2019-04-05T14:53:02.279Z,99352.13
2019-04-05T14:55:35.526Z,99355.29
2019-04-05T14:58:10.344Z,99354.33
2019-04-05T15:00:41.875Z,99348.08
2019-04-05T15:03:14.325Z,99348.08
2019-04-05T15:05:46.862Z,99353.43
2019-04-05T15:08:20.659Z,99357.55
2019-04-05T15:10:56.611Z,99349.70
2019-04-05T15:13:27.277Z,99346.45
2019-04-05T15:15:59.887Z,99346.32
2019-04-05T15:18:32.065Z,99341.59
2019-04-05T15:21:06.362Z,99344.66
2019-04-05T15:23:41.075Z,99352.52
2019-04-05T15:26:12.375Z,99349.80
2019-04-05T15:28:45.378Z,99349.67
2019-04-05T15:31:18.096Z,99340.04
2019-04-05T15:33:50.329Z,99343.59
2019-04-05T15:36:22.859Z,99346.02
2019-04-05T15:38:54.881Z,99351.66
2019-04-05T15:41:27.048Z,99349.27
2019-04-05T15:43:59.367Z,99344.64
2019-04-05T15:46:32.119Z,99345.91
2019-04-05T15:49:19.452Z,99347.06
2019-04-05T15:51:54.317Z,99349.88
2019-04-05T15:54:28.809Z,99343.92
2019-04-05T15:57:10.320Z,99346.12
2019-04-05T15:59:45.102Z,99344.13
2019-04-05T16:02:16.878Z,99344.34
2019-04-05T16:04:49.097Z,99344.34
2019-04-05T16:07:21.323Z,99345.19
2019-04-05T16:09:53.868Z,99335.45
2019-04-05T16:12:26.323Z,99336.67
2019-04-05T16:14:58.962Z,99338.89
2019-04-05T16:17:31.012Z,99336.28
2019-04-05T16:20:03.161Z,99330.93
2019-04-05T16:22:36.023Z,99331.16
2019-04-05T16:25:09.024Z,99335.52
2019-04-05T16:27:41.322Z,99330.06
2019-04-05T16:30:15.328Z,99330.73
2019-04-05T16:32:47.888Z,99327.05
2019-04-05T16:35:19.855Z,99324.55
2019-04-05T16:37:51.889Z,99324.12
2019-04-05T16:40:24.307Z,99323.30
2019-04-05T16:43:02.759Z,99322.73
2019-04-05T16:45:31.367Z,99319.58
2019-04-05T16:48:03.897Z,99322.40
2019-04-05T16:50:35.901Z,99326.09
2019-04-05T16:56:00.758Z,99328.44
2019-04-05T16:58:32.273Z,99332.33
2019-04-05T17:01:04.841Z,99334.12
2019-04-05T17:03:36.937Z,99327.75
2019-04-05T17:06:09.100Z,99328.91
2019-04-05T17:08:41.852Z,99335.09
2019-04-05T17:11:13.820Z,99331.94
2019-04-05T17:13:45.902Z,99334.45
2019-04-05T17:16:18.324Z,99323.39
2019-04-05T17:18:52.489Z,99327.38
2019-04-05T17:21:24.938Z,99325.61
2019-04-05T17:23:57.263Z,99331.56
2019-04-05T17:26:29.617Z,99329.87
2019-04-05T17:29:01.927Z,99336.57
2019-04-05T17:31:34.327Z,99338.56
2019-04-05T17:34:06.836Z,99329.35
2019-04-05T17:36:39.033Z,99331.44
2019-04-05T17:39:11.872Z,99333.13
2019-04-05T17:41:44.280Z,99329.04
2019-04-05T17:44:16.804Z,99334.19
2019-04-05T17:46:48.866Z,99341.72
2019-04-05T17:49:21.333Z,99338.57
2019-04-05T17:51:53.851Z,99343.42
2019-04-05T17:54:27.123Z,99350.83
2019-04-05T17:56:59.541Z,99356.57
2019-04-05T17:59:31.860Z,99352.61
2019-04-05T18:02:03.957Z,99357.31
2019-04-05T18:04:40.065Z,99356.89
2019-04-05T18:07:12.896Z,99362.87
2019-04-05T18:09:44.834Z,99370.44
2019-04-05T18:12:17.043Z,99371.14
2019-04-05T18:14:50.136Z,99371.54
2019-04-05T18:17:24.915Z,99371.44
2019-04-05T18:20:02.455Z,99374.59
2019-04-05T18:22:58.338Z,99374.49
2019-04-05T18:25:31.368Z,99376.09
2019-04-05T18:28:04.059Z,99379.43
2019-04-05T18:30:38.754Z,99375.05
2019-04-05T18:33:15.942Z,99362.88
2019-04-05T18:35:48.870Z,99374.06
2019-04-05T18:38:26.246Z,99374.09
2019-04-05T18:41:01.402Z,99369.06
2019-04-05T18:43:33.841Z,99374.50
2019-04-05T18:46:06.728Z,99369.06
2019-04-05T18:48:38.889Z,99368.31
2019-04-05T18:51:10.889Z,99375.86
2019-04-05T18:53:43.356Z,99371.45
2019-04-05T18:56:15.887Z,99373.02
2019-04-05T18:58:48.837Z,99378.79
2019-04-05T19:01:21.534Z,99370.11
2019-04-05T19:03:55.110Z,99366.02
2019-04-05T19:06:27.849Z,99373.13
2019-04-05T19:09:00.785Z,99371.15
2019-04-05T19:11:34.077Z,99365.38
2019-04-05T19:14:09.766Z,99367.17
2019-04-05T19:16:42.029Z,99366.01
2019-04-05T19:19:17.819Z,99366.31
2019-04-05T19:21:52.169Z,99365.70
2019-04-05T19:24:24.879Z,99370.19
2019-04-05T19:26:57.123Z,99365.80
2019-04-05T19:29:29.870Z,99372.30
2019-04-05T19:50:16.137Z,99382.09
2019-04-05T19:55:31.489Z,99380.73
2019-04-05T19:58:04.926Z,99382.41
2019-04-05T20:00:38.066Z,99375.60
2019-04-05T20:03:15.668Z,99381.54
2019-04-05T20:05:49.526Z,99378.44
2019-04-05T20:08:22.921Z,99385.63
2019-04-05T20:10:56.735Z,99384.27
2019-04-05T20:13:30.138Z,99383.20
2019-04-05T20:16:05.818Z,99386.88
2019-04-05T20:18:39.535Z,99383.84
2019-04-05T20:21:12.834Z,99380.07
2019-04-05T20:23:47.794Z,99380.07
2019-04-05T20:26:20.763Z,99381.02
2019-04-05T20:28:53.065Z,99379.12
2019-04-05T20:31:26.379Z,99377.13
2019-04-05T20:33:59.382Z,99384.34
2019-04-05T20:36:32.847Z,99379.09
2019-04-05T20:39:05.937Z,99381.55
2019-04-05T20:41:39.366Z,99379.78
2019-04-05T20:44:12.715Z,99386.72
2019-04-05T20:46:48.390Z,99382.98
2019-04-05T20:49:20.862Z,99385.75
2019-04-05T20:51:53.288Z,99385.22
2019-04-05T20:54:26.375Z,99390.66
2019-04-05T20:56:59.355Z,99388.47
2019-04-05T20:59:32.149Z,99380.61
2019-04-05T21:02:05.132Z,99380.08
2019-04-05T21:04:39.102Z,99395.79
2019-04-05T21:07:12.602Z,99395.03
2019-04-05T21:09:45.061Z,99399.00
2019-04-05T21:12:18.600Z,99403.27
2019-04-05T21:14:52.484Z,99397.70
2019-04-05T21:17:26.259Z,99397.70
2019-04-05T21:19:59.468Z,99398.36
2019-04-05T21:22:32.545Z,99402.12
2019-04-05T21:25:04.915Z,99405.03
2019-04-05T21:27:38.440Z,99405.03
2019-04-05T21:30:11.986Z,99402.73
2019-04-05T21:32:46.029Z,99407.33
2019-04-05T21:35:19.379Z,99403.14
2019-04-05T21:37:52.751Z,99403.33
2019-04-05T21:40:25.419Z,99408.77
2019-04-05T21:42:58.566Z,99401.73
2019-04-05T21:45:31.397Z,99405.27
2019-04-05T21:48:04.747Z,99406.63
2019-04-05T21:50:38.471Z,99412.71
2019-04-05T21:53:12.387Z,99414.56
2019-04-05T21:55:46.333Z,99414.26
2019-04-05T21:58:19.384Z,99410.60
2019-04-05T22:00:57.362Z,99414.49
2019-04-05T22:03:30.134Z,99415.73
2019-04-05T22:06:06.344Z,99412.38
2019-04-05T22:08:39.312Z,99423.46
2019-04-05T22:11:12.354Z,99422.48
2019-04-05T22:13:45.552Z,99429.39
2019-04-05T22:16:18.341Z,99421.77
2019-04-05T22:18:51.381Z,99421.24
2019-04-05T22:21:24.362Z,99418.62
2019-04-05T22:23:56.873Z,99417.02
2019-04-05T22:26:28.916Z,99422.22
2019-04-05T22:29:00.887Z,99418.05
2019-04-05T22:31:32.883Z,99423.17
2019-04-05T22:34:05.075Z,99418.57
2019-04-05T22:36:37.347Z,99419.86
2019-04-05T22:39:09.908Z,99422.46
2019-04-05T22:41:42.042Z,99422.46
2019-04-05T22:44:14.335Z,99422.58
2019-04-05T22:46:46.910Z,99430.92
2019-04-05T22:49:18.879Z,99429.44
2019-04-05T22:51:50.901Z,99430.49
2019-04-05T22:54:23.416Z,99431.26
2019-04-05T22:56:55.860Z,99427.06
2019-04-05T22:59:28.298Z,99437.53
2019-04-05T23:02:00.905Z,99440.12
2019-04-05T23:04:33.041Z,99448.28
2019-04-05T23:07:05.296Z,99437.59
2019-04-05T23:09:37.890Z,99447.94
2019-04-05T23:12:10.341Z,99450.34
2019-04-05T23:14:42.834Z,99441.55
2019-04-05T23:17:15.104Z,99446.67
2019-04-05T23:19:47.852Z,99442.91
2019-04-05T23:22:20.901Z,99441.77
2019-04-05T23:24:53.047Z,99438.19
2019-04-05T23:27:25.328Z,99442.14
2019-04-05T23:29:57.906Z,99441.95
2019-04-05T23:32:30.613Z,99446.16
2019-04-05T23:35:02.899Z,99433.31
2019-04-05T23:37:36.031Z,99433.31
2019-04-05T23:40:09.361Z,99448.81
2019-04-05T23:42:42.375Z,99458.14
2019-04-05T23:45:14.848Z,99463.63
2019-04-05T23:47:46.894Z,99470.23
2019-04-05T23:50:18.898Z,99473.20
2019-04-05T23:52:51.819Z,99480.70
2019-04-05T23:55:32.825Z,99481.36
2019-04-05T23:57:59.642Z,99470.34
